createdAt,value
2019-02-24T00:01:53.255Z,99.90
2019-02-24T00:05:15.920Z,99.90
2019-02-24T00:08:38.522Z,99.90
2019-02-24T00:12:01.109Z,99.90
2019-02-24T00:15:23.408Z,99.90
2019-02-24T00:18:45.821Z,99.90
2019-02-24T00:22:08.272Z,99.90
2019-02-24T00:25:30.720Z,99.90
2019-02-24T00:28:53.186Z,99.90
2019-02-24T00:32:15.799Z,99.90
2019-02-24T00:35:38.181Z,99.90
2019-02-24T00:39:00.300Z,99.90
2019-02-24T00:42:22.980Z,99.90
2019-02-24T00:45:45.102Z,99.90
2019-02-24T00:49:07.560Z,99.90
2019-02-24T00:52:30.005Z,99.90
2019-02-24T00:55:52.212Z,99.90
2019-02-24T00:59:14.689Z,99.90
2019-02-24T01:02:37.162Z,99.90
2019-02-24T01:05:59.664Z,99.90
2019-02-24T01:09:22.054Z,99.90
2019-02-24T01:12:44.450Z,99.90
2019-02-24T01:16:06.721Z,99.90
2019-02-24T01:19:29.024Z,99.90
2019-02-24T01:22:51.676Z,99.90
2019-02-24T01:26:14.626Z,99.90
2019-02-24T01:29:37.213Z,99.90
2019-02-24T01:32:59.765Z,99.90
2019-02-24T01:36:22.672Z,99.90
2019-02-24T01:39:45.204Z,99.90
2019-02-24T01:43:07.267Z,99.90
2019-02-24T01:46:30.013Z,99.90
2019-02-24T01:49:52.717Z,99.90
2019-02-24T01:53:15.205Z,99.90
2019-02-24T01:56:37.645Z,99.90
2019-02-24T02:00:00.484Z,99.90
2019-02-24T02:03:22.614Z,99.90
2019-02-24T02:06:45.241Z,99.90
2019-02-24T02:10:08.068Z,99.90
2019-02-24T02:13:30.506Z,99.90
2019-02-24T02:16:53.266Z,99.90
2019-02-24T02:20:15.773Z,99.90
2019-02-24T02:23:38.251Z,99.90
2019-02-24T02:27:01.015Z,99.90
2019-02-24T02:30:23.501Z,99.90
2019-02-24T02:33:45.702Z,99.90
2019-02-24T02:37:07.898Z,99.90
2019-02-24T02:40:30.406Z,99.90
2019-02-24T02:43:52.906Z,99.90
2019-02-24T02:47:15.403Z,99.90
2019-02-24T02:50:38.125Z,99.90
2019-02-24T02:54:01.032Z,99.90
2019-02-24T02:57:23.805Z,99.90
2019-02-24T03:00:46.737Z,99.90
2019-02-24T03:04:09.449Z,99.90
2019-02-24T03:07:39.946Z,99.90
2019-02-24T03:11:02.712Z,99.90
2019-02-24T03:14:24.914Z,99.90
2019-02-24T03:17:47.198Z,99.90
2019-02-24T03:21:09.639Z,99.90
2019-02-24T03:24:32.226Z,99.90
2019-02-24T03:27:54.595Z,99.90
2019-02-24T03:31:16.929Z,99.90
2019-02-24T03:34:39.418Z,99.90
2019-02-24T03:38:01.936Z,99.90
2019-02-24T03:41:24.836Z,99.90
2019-02-24T03:44:47.703Z,99.90
2019-02-24T03:48:10.405Z,99.90
2019-02-24T03:51:33.169Z,99.90
2019-02-24T03:54:56.159Z,99.90
2019-02-24T03:58:26.024Z,99.90
2019-02-24T04:01:48.641Z,99.90
2019-02-24T04:05:11.456Z,99.90
2019-02-24T04:08:33.617Z,99.90
2019-02-24T04:11:55.963Z,99.90
2019-02-24T04:15:18.169Z,99.90
2019-02-24T04:18:40.358Z,99.90
2019-02-24T04:22:03.083Z,99.90
2019-02-24T04:25:25.727Z,99.90
2019-02-24T04:28:48.296Z,99.90
2019-02-24T04:32:10.986Z,99.90
2019-02-24T04:35:33.880Z,99.90
2019-02-24T04:38:56.822Z,99.90
2019-02-24T04:42:19.384Z,99.90
2019-02-24T04:45:42.294Z,99.90
2019-02-24T04:49:04.784Z,99.90
2019-02-24T04:52:26.977Z,99.90
2019-02-24T04:55:49.316Z,99.90
2019-02-24T04:59:12.000Z,99.90
2019-02-24T05:02:34.477Z,99.90
2019-02-24T05:05:57.146Z,99.90
2019-02-24T05:09:19.702Z,99.90
2019-02-24T05:12:41.865Z,99.90
2019-02-24T05:16:04.323Z,99.90
2019-02-24T05:19:26.520Z,99.90
2019-02-24T05:22:49.214Z,99.90
2019-02-24T05:26:11.940Z,99.90
2019-02-24T05:29:34.161Z,99.90
2019-02-24T05:32:56.580Z,99.90
2019-02-24T05:36:19.237Z,99.90
2019-02-24T05:39:41.738Z,99.90
2019-02-24T05:43:04.209Z,99.90
2019-02-24T05:46:26.788Z,99.90
2019-02-24T05:49:48.952Z,99.90
2019-02-24T05:53:11.822Z,99.90
2019-02-24T05:56:34.693Z,99.90
2019-02-24T05:59:57.219Z,99.90
2019-02-24T06:03:19.908Z,99.90
2019-02-24T06:06:42.581Z,99.90
2019-02-24T06:10:05.743Z,99.90
2019-02-24T06:13:28.402Z,99.90
2019-02-24T06:16:51.029Z,99.90
2019-02-24T06:20:13.571Z,99.90
2019-02-24T06:23:36.195Z,99.90
2019-02-24T06:26:58.837Z,99.90
2019-02-24T06:30:20.949Z,99.90
2019-02-24T06:33:43.895Z,99.90
2019-02-24T06:37:06.596Z,99.90
2019-02-24T06:40:29.306Z,99.90
2019-02-24T06:43:51.372Z,99.90
2019-02-24T06:47:13.941Z,99.90
2019-02-24T06:50:57.756Z,99.90
2019-02-24T06:54:20.616Z,99.90
2019-02-24T06:57:43.236Z,99.90
2019-02-24T07:01:05.887Z,99.90
2019-02-24T07:04:28.373Z,99.90
2019-02-24T07:07:50.763Z,99.90
2019-02-24T07:11:13.394Z,99.90
2019-02-24T07:14:35.802Z,99.90
2019-02-24T07:17:58.169Z,99.90
2019-02-24T07:21:20.658Z,99.90
2019-02-24T07:24:43.122Z,99.90
2019-02-24T07:28:05.589Z,99.90
2019-02-24T07:31:28.154Z,99.90
2019-02-24T07:34:50.945Z,99.90
2019-02-24T07:38:13.043Z,99.90
2019-02-24T07:41:35.582Z,99.90
2019-02-24T07:44:57.819Z,99.90
2019-02-24T07:48:20.545Z,99.90
2019-02-24T07:51:43.286Z,99.90
2019-02-24T07:55:05.550Z,99.90
2019-02-24T07:58:27.706Z,99.90
2019-02-24T08:01:49.847Z,99.90
2019-02-24T08:05:12.672Z,99.90
2019-02-24T08:08:35.197Z,99.90
2019-02-24T08:11:57.857Z,99.90
2019-02-24T08:15:20.513Z,99.90
2019-02-24T08:18:49.289Z,99.90
2019-02-24T08:22:07.217Z,99.90
2019-02-24T08:25:29.912Z,99.90
2019-02-24T08:28:52.641Z,99.90
2019-02-24T08:32:15.361Z,99.90
2019-02-24T08:35:38.266Z,99.90
2019-02-24T08:39:01.293Z,99.90
2019-02-24T08:42:24.040Z,99.90
2019-02-24T08:45:46.694Z,99.90
2019-02-24T08:49:09.181Z,99.90
2019-02-24T08:52:31.856Z,99.90
2019-02-24T08:55:54.390Z,99.90
2019-02-24T08:59:17.043Z,99.90
2019-02-24T09:02:39.566Z,99.90
2019-02-24T09:06:02.246Z,99.90
2019-02-24T09:09:24.457Z,99.90
2019-02-24T09:12:46.541Z,99.90
2019-02-24T09:16:08.713Z,99.90
2019-02-24T09:19:31.186Z,99.90
2019-02-24T09:22:53.573Z,98.00
2019-02-24T09:26:16.111Z,98.40
2019-02-24T09:29:38.855Z,97.40
2019-02-24T09:33:01.301Z,97.20
2019-02-24T09:36:24.137Z,94.80
2019-02-24T09:39:46.794Z,93.80
2019-02-24T09:43:09.128Z,94.00
2019-02-24T09:46:31.914Z,94.20
2019-02-24T09:49:54.348Z,94.40
2019-02-24T09:53:17.184Z,94.50
2019-02-24T09:56:39.783Z,95.10
2019-02-24T10:00:02.708Z,95.30
2019-02-24T10:03:25.272Z,95.00
2019-02-24T10:06:48.168Z,95.20
2019-02-24T10:10:11.216Z,94.50
2019-02-24T10:13:33.805Z,94.30
2019-02-24T10:16:56.378Z,93.90
2019-02-24T10:20:18.981Z,93.60
2019-02-24T10:23:41.539Z,92.70
2019-02-24T10:27:04.053Z,92.70
2019-02-24T10:30:26.418Z,93.00
2019-02-24T10:33:49.083Z,92.70
2019-02-24T10:37:11.484Z,91.90
2019-02-24T10:40:33.902Z,91.20
2019-02-24T10:43:56.339Z,90.90
2019-02-24T10:47:19.042Z,88.70
2019-02-24T10:50:41.522Z,88.00
2019-02-24T10:54:03.942Z,85.90
2019-02-24T10:57:26.101Z,84.00
2019-02-24T11:00:48.442Z,81.60
2019-02-24T11:04:10.885Z,80.80
2019-02-24T11:07:33.404Z,80.80
2019-02-24T11:10:56.047Z,78.00
2019-02-24T11:14:18.904Z,76.00
2019-02-24T11:17:41.430Z,75.90
2019-02-24T11:21:04.149Z,73.20
2019-02-24T11:24:26.353Z,72.50
2019-02-24T11:27:48.726Z,68.90
2019-02-24T11:31:11.248Z,65.80
2019-02-24T11:34:33.968Z,66.90
2019-02-24T11:37:56.809Z,65.90
2019-02-24T11:41:19.582Z,62.90
2019-02-24T11:44:42.516Z,61.20
2019-02-24T11:48:05.174Z,60.60
2019-02-24T11:51:27.815Z,58.70
2019-02-24T11:54:50.519Z,58.50
2019-02-24T11:58:13.197Z,59.10
2019-02-24T12:01:35.570Z,59.10
2019-02-24T12:04:58.050Z,58.10
2019-02-24T12:08:20.405Z,57.20
2019-02-24T12:11:42.817Z,56.70
2019-02-24T12:15:05.998Z,55.80
2019-02-24T12:18:28.242Z,54.90
2019-02-24T12:21:50.918Z,55.00
2019-02-24T12:25:13.565Z,53.40
2019-02-24T12:28:35.857Z,53.20
2019-02-24T12:31:58.301Z,52.00
2019-02-24T12:35:20.679Z,52.20
2019-02-24T12:38:43.102Z,51.00
2019-02-24T12:42:05.538Z,50.10
2019-02-24T12:45:28.017Z,48.50
2019-02-24T12:48:50.534Z,47.10
2019-02-24T12:52:13.095Z,46.70
2019-02-24T12:55:35.853Z,45.20
2019-02-24T12:58:58.458Z,45.00
2019-02-24T13:02:21.112Z,45.30
2019-02-24T13:05:43.318Z,45.40
2019-02-24T13:09:08.478Z,43.10
2019-02-24T13:12:30.980Z,44.30
2019-02-24T13:15:53.577Z,43.40
2019-02-24T13:19:16.097Z,41.10
2019-02-24T13:22:39.197Z,42.20
2019-02-24T13:26:01.770Z,43.40
2019-02-24T13:29:24.443Z,42.50
2019-02-24T13:32:46.929Z,41.30
2019-02-24T13:36:09.166Z,39.70
2019-02-24T13:39:31.924Z,39.20
2019-02-24T13:42:54.476Z,38.10
2019-02-24T13:46:17.176Z,37.60
2019-02-24T13:49:39.760Z,38.00
2019-02-24T13:53:02.212Z,38.10
2019-02-24T13:56:24.382Z,38.30
2019-02-24T13:59:46.505Z,38.20
2019-02-24T14:03:08.809Z,37.90
2019-02-24T14:06:31.258Z,38.30
2019-02-24T14:09:54.039Z,38.90
2019-02-24T14:13:16.543Z,38.80
2019-02-24T14:16:39.048Z,39.10
2019-02-24T14:20:01.463Z,39.20
2019-02-24T14:23:23.964Z,39.30
2019-02-24T14:26:46.346Z,40.20
2019-02-24T14:30:10.884Z,40.00
2019-02-24T14:33:33.582Z,40.30
2019-02-24T14:36:57.155Z,40.40
2019-02-24T14:40:20.045Z,40.30
2019-02-24T14:43:42.567Z,40.30
2019-02-24T14:47:04.885Z,41.80
2019-02-24T14:50:27.667Z,42.30
2019-02-24T14:53:50.193Z,42.30
2019-02-24T14:57:12.577Z,42.10
2019-02-24T15:00:35.329Z,42.90
2019-02-24T15:03:58.013Z,42.90
2019-02-24T15:07:20.538Z,43.40
2019-02-24T15:10:43.085Z,44.90
2019-02-24T15:14:05.734Z,45.60
2019-02-24T15:17:28.513Z,46.50
2019-02-24T15:20:51.182Z,46.80
2019-02-24T15:24:13.903Z,47.90
2019-02-24T15:27:36.583Z,48.00
2019-02-24T15:30:58.840Z,48.40
2019-02-24T15:34:21.693Z,48.00
2019-02-24T15:37:44.522Z,47.20
2019-02-24T15:41:06.897Z,46.30
2019-02-24T15:44:29.514Z,46.80
2019-02-24T15:47:51.722Z,46.80
2019-02-24T15:51:14.325Z,46.60
2019-02-24T15:54:37.041Z,47.10
2019-02-24T15:57:59.169Z,46.90
2019-02-24T16:01:21.546Z,47.80
2019-02-24T16:04:43.694Z,48.50
2019-02-24T16:08:05.850Z,47.70
2019-02-24T16:11:28.204Z,47.60
2019-02-24T16:14:51.747Z,48.10
2019-02-24T16:18:14.184Z,49.50
2019-02-24T16:21:36.914Z,49.40
2019-02-24T16:24:59.308Z,49.50
2019-02-24T16:28:22.070Z,49.00
2019-02-24T16:31:44.588Z,48.70
2019-02-24T16:35:08.815Z,46.00
2019-02-24T16:38:31.202Z,45.10
2019-02-24T16:41:53.845Z,45.40
2019-02-24T16:45:16.382Z,46.70
2019-02-24T16:48:38.885Z,47.10
2019-02-24T16:52:01.693Z,49.10
2019-02-24T16:55:24.316Z,50.20
2019-02-24T16:58:46.816Z,51.20
2019-02-24T17:02:09.345Z,51.50
2019-02-24T17:05:32.221Z,51.20
2019-02-24T17:09:01.297Z,51.00
2019-02-24T17:12:19.254Z,50.90
2019-02-24T17:15:42.043Z,52.40
2019-02-24T17:19:04.824Z,52.10
2019-02-24T17:22:27.570Z,51.90
2019-02-24T17:25:50.294Z,52.20
2019-02-24T17:29:12.957Z,53.00
2019-02-24T17:32:35.916Z,53.60
2019-02-24T17:36:07.679Z,53.30
2019-02-24T17:39:30.260Z,52.90
2019-02-24T17:42:52.965Z,53.10
2019-02-24T17:46:15.661Z,53.30
2019-02-24T17:49:38.569Z,53.90
2019-02-24T17:53:01.117Z,54.60
2019-02-24T17:56:23.671Z,55.00
2019-02-24T17:59:46.233Z,55.70
2019-02-24T18:03:08.594Z,56.30
2019-02-24T18:06:31.326Z,56.50
2019-02-24T18:09:53.691Z,56.80
2019-02-24T18:13:16.210Z,56.70
2019-02-24T18:16:38.718Z,57.60
2019-02-24T18:20:01.240Z,58.00
2019-02-24T18:23:23.873Z,58.90
2019-02-24T18:26:46.934Z,62.00
2019-02-24T18:30:12.677Z,63.30
2019-02-24T18:33:35.462Z,60.30
2019-02-24T18:36:57.927Z,59.40
2019-02-24T18:40:20.489Z,64.60
2019-02-24T18:43:43.064Z,62.30
2019-02-24T18:47:05.570Z,60.50
2019-02-24T18:50:28.293Z,64.90
2019-02-24T18:53:50.924Z,63.60
2019-02-24T18:57:13.595Z,62.40
2019-02-24T19:00:36.295Z,63.20
2019-02-24T19:03:58.704Z,64.80
2019-02-24T19:07:21.141Z,66.80
2019-02-24T19:10:43.637Z,67.00
2019-02-24T19:14:06.140Z,67.10
2019-02-24T19:17:28.597Z,66.70
2019-02-24T19:20:50.995Z,66.70
2019-02-24T19:24:13.755Z,70.30
2019-02-24T19:27:36.216Z,68.20
2019-02-24T19:30:58.698Z,67.60
2019-02-24T19:34:21.389Z,66.80
2019-02-24T19:37:44.201Z,67.50
2019-02-24T19:41:06.666Z,67.20
2019-02-24T19:44:29.086Z,68.90
2019-02-24T19:47:51.611Z,67.30
2019-02-24T19:51:14.006Z,66.80
2019-02-24T19:54:36.425Z,66.70
2019-02-24T19:57:59.156Z,68.40
2019-02-24T20:01:21.563Z,67.90
2019-02-24T20:04:44.266Z,67.40
2019-02-24T20:08:06.705Z,67.30
2019-02-24T20:11:29.184Z,68.10
2019-02-24T20:14:52.011Z,67.40
2019-02-24T20:18:14.655Z,68.20
2019-02-24T20:21:36.949Z,68.40
2019-02-24T20:24:59.563Z,69.60
2019-02-24T20:28:22.145Z,70.20
2019-02-24T20:31:45.043Z,70.50
2019-02-24T20:35:07.376Z,70.80
2019-02-24T20:38:29.396Z,70.60
2019-02-24T20:41:51.846Z,69.60
2019-02-24T20:45:15.061Z,68.90
2019-02-24T20:48:37.339Z,68.60
2019-02-24T20:51:59.785Z,69.10
2019-02-24T20:55:22.309Z,70.00
2019-02-24T20:58:44.757Z,72.00
2019-02-24T21:02:07.228Z,72.30
2019-02-24T21:05:30.653Z,73.40
2019-02-24T21:08:53.172Z,72.20
2019-02-24T21:12:15.566Z,74.20
2019-02-24T21:15:38.026Z,75.10
2019-02-24T21:19:00.560Z,75.20
2019-02-24T21:22:23.248Z,75.40
2019-02-24T21:25:45.671Z,75.90
2019-02-24T21:29:07.888Z,76.50
2019-02-24T21:32:30.628Z,76.80
2019-02-24T21:35:52.893Z,78.00
2019-02-24T21:39:15.668Z,78.50
2019-02-24T21:42:38.136Z,79.00
2019-02-24T21:46:00.894Z,79.50
2019-02-24T21:49:23.625Z,79.40
2019-02-24T21:52:45.963Z,78.90
2019-02-24T21:56:08.810Z,79.80
2019-02-24T21:59:36.964Z,80.10
2019-02-24T22:02:55.992Z,80.00
2019-02-24T22:06:18.801Z,80.70
2019-02-24T22:09:41.517Z,80.70
2019-02-24T22:13:04.137Z,81.80
2019-02-24T22:16:26.794Z,82.10
2019-02-24T22:19:49.009Z,83.80
2019-02-24T22:23:11.465Z,84.70
2019-02-24T22:26:34.065Z,85.60
2019-02-24T22:29:56.885Z,86.60
2019-02-24T22:33:19.237Z,87.90
2019-02-24T22:36:41.574Z,89.90
2019-02-24T22:40:04.528Z,90.50
2019-02-24T22:43:27.160Z,92.00
2019-02-24T22:46:50.512Z,92.50
2019-02-24T22:50:13.599Z,92.70
2019-02-24T22:53:35.775Z,92.80
2019-02-24T22:56:58.005Z,93.40
2019-02-24T23:00:54.469Z,93.50
2019-02-24T23:04:17.109Z,94.20
2019-02-24T23:07:39.772Z,94.70
2019-02-24T23:11:02.445Z,95.20
2019-02-24T23:14:24.940Z,95.50
2019-02-24T23:17:47.137Z,95.70
2019-02-24T23:21:09.677Z,95.80
2019-02-24T23:24:32.064Z,96.10
2019-02-24T23:27:54.245Z,96.30
2019-02-24T23:31:16.804Z,96.30
2019-02-24T23:34:39.293Z,96.20
2019-02-24T23:38:01.766Z,96.20
2019-02-24T23:41:24.236Z,96.60
2019-02-24T23:44:46.901Z,97.00
2019-02-24T23:48:09.063Z,96.80
2019-02-24T23:51:31.804Z,97.20
2019-02-24T23:54:54.078Z,97.00
2019-02-24T23:58:16.866Z,97.10
